Time;durP1;ratioP1;P1;durP2;ratioP2;P2;SDS_P1;SDS_P2;PMS_P1;PMS_P2;Temp;Humidity;BMP_temperature;BMP_pressure;BME280_temperature;BME280_humidity;BME280_pressure;Samples;Min_cycle;Max_cycle;Signal;HPM_P1;HPM_P2
2023/09/07 00:00:48;;;;;;;;;11.00;11.00;;;;;29.44;49.98;101521.44;5117188;27;45315;-81
2023/09/07 00:03:14;;;;;;;;;9.33;9.33;;;;;29.45;49.94;101528.44;5117564;27;45352;-80
2023/09/07 00:05:40;;;;;;;;;13.00;12.67;;;;;29.45;49.79;101530.28;5117344;27;45492;-80
2023/09/07 00:08:05;;;;;;;;;13.00;12.00;;;;;29.40;50.05;101515.69;5116378;27;46267;-81
2023/09/07 00:10:35;;;;;;;;;11.33;11.33;;;;;29.42;49.59;101526.19;5116546;27;45354;-81
2023/09/07 00:13:03;;;;;;;;;11.33;11.00;;;;;29.44;49.86;101537.50;5117332;27;45390;-81
2023/09/07 00:15:30;;;;;;;;;10.00;10.00;;;;;29.46;49.91;101535.44;5117215;27;45394;-81
2023/09/07 00:17:56;;;;;;;;;12.00;11.33;;;;;29.42;50.01;101536.09;5098486;27;45455;-80
2023/09/07 00:20:21;;;;;;;;;12.67;12.67;;;;;29.44;50.16;101545.56;5116853;27;45438;-81
2023/09/07 00:22:47;;;;;;;;;12.67;12.00;;;;;29.30;49.75;101518.00;5117072;27;45411;-81
2023/09/07 00:25:13;;;;;;;;;11.33;11.33;;;;;29.39;50.18;101531.97;5116175;27;45643;-80
2023/09/07 00:27:39;;;;;;;;;11.00;11.00;;;;;29.45;49.63;101532.97;5116465;27;46030;-81
2023/09/07 00:30:06;;;;;;;;;14.33;13.00;;;;;29.37;49.79;101518.78;5116712;27;45488;-81
2023/09/07 00:32:36;;;;;;;;;11.33;11.00;;;;;29.44;49.77;101539.38;5116735;27;45388;-80
2023/09/07 00:35:02;;;;;;;;;11.00;11.00;;;;;29.38;49.76;101519.63;5117181;27;45495;-80
2023/09/07 00:37:27;;;;;;;;;11.00;10.00;;;;;29.42;49.40;101533.41;5097712;27;45530;-80
2023/09/07 00:39:52;;;;;;;;;12.67;12.67;;;;;29.42;49.76;101528.03;5116714;27;45481;-80
2023/09/07 00:42:18;;;;;;;;;9.67;9.67;;;;;29.44;49.71;101531.31;5116566;27;45306;-80
2023/09/07 00:44:43;;;;;;;;;12.33;9.33;;;;;29.45;49.98;101541.03;5116214;27;45564;-81
2023/09/07 00:47:09;;;;;;;;;10.33;10.33;;;;;29.44;49.87;101539.38;5097275;27;46178;-82
2023/09/07 00:49:34;;;;;;;;;12.67;12.67;;;;;29.40;49.91;101520.22;5115956;27;45312;-81
2023/09/07 00:51:59;;;;;;;;;11.67;11.00;;;;;29.40;49.74;101525.59;5116118;27;45696;-81
2023/09/07 00:54:25;;;;;;;;;10.67;9.67;;;;;29.42;49.93;101522.69;5116827;27;45220;-81
2023/09/07 00:56:50;;;;;;;;;11.00;11.00;;;;;29.45;49.87;101539.16;5097817;27;46765;-81
2023/09/07 00:59:16;;;;;;;;;13.00;13.00;;;;;29.39;49.74;101522.06;5097999;27;45250;-81
2023/09/07 01:01:43;;;;;;;;;10.33;10.33;;;;;29.42;49.88;101515.47;5116554;27;45437;-81
2023/09/07 01:04:08;;;;;;;;;11.00;11.00;;;;;29.48;49.38;101528.03;5116743;27;45539;-81
2023/09/07 01:06:39;;;;;;;;;13.00;11.00;;;;;29.48;49.85;101522.66;5115945;27;45448;-81
2023/09/07 01:09:10;;;;;;;;;12.33;10.67;;;;;29.44;49.60;101516.06;5116429;27;45423;-81
2023/09/07 01:11:37;;;;;;;;;9.67;9.67;;;;;29.42;49.67;101503.91;5116509;27;45332;-81
2023/09/07 01:14:04;;;;;;;;;11.00;11.00;;;;;29.47;49.38;101521.00;5116247;27;45278;-81
2023/09/07 01:16:30;;;;;;;;;10.00;10.00;;;;;29.46;49.59;101516.66;5116145;27;46713;-81
2023/09/07 01:18:56;;;;;;;;;14.00;12.00;;;;;29.47;49.87;101507.59;5116257;27;45266;-80
2023/09/07 01:21:22;;;;;;;;;12.00;11.00;;;;;29.45;49.72;101501.63;5115145;27;45349;-81
2023/09/07 01:23:48;;;;;;;;;10.33;10.33;;;;;29.47;49.30;101502.25;5116751;27;45387;-81
2023/09/07 01:26:14;;;;;;;;;11.00;11.00;;;;;29.46;49.79;101500.59;5116180;27;45440;-81
2023/09/07 01:28:39;;;;;;;;;10.00;10.00;;;;;29.33;49.46;101480.03;5116092;27;45546;-81
2023/09/07 01:31:06;;;;;;;;;11.00;11.00;;;;;29.38;49.44;101484.78;5116925;27;45458;-81
2023/09/07 01:33:31;;;;;;;;;11.67;11.67;;;;;29.38;49.66;101482.91;5098030;27;45387;-81
2023/09/07 01:35:57;;;;;;;;;15.00;13.00;;;;;29.42;49.42;101494.03;5097003;27;46508;-81
2023/09/07 01:38:22;;;;;;;;;10.00;10.00;;;;;29.44;49.80;101501.84;5119050;27;45427;-81
2023/09/07 01:40:47;;;;;;;;;10.67;10.67;;;;;29.37;49.78;101492.00;5101092;27;45510;-81
2023/09/07 01:43:13;;;;;;;;;10.33;10.33;;;;;29.41;49.79;101495.03;5118598;27;45619;-81
2023/09/07 01:45:38;;;;;;;;;10.67;9.33;;;;;29.42;49.51;101495.88;5118996;27;47136;-81
2023/09/07 01:48:09;;;;;;;;;12.33;11.00;;;;;29.48;49.70;101503.06;5119111;27;45430;-81
2023/09/07 01:50:34;;;;;;;;;10.00;9.33;;;;;29.40;49.55;101480.84;5100918;27;45325;-81
2023/09/07 01:53:00;;;;;;;;;10.33;10.33;;;;;29.49;49.36;101493.97;5118470;27;45300;-82
2023/09/07 01:55:27;;;;;;;;;11.00;11.00;;;;;29.48;49.51;101492.34;5100500;27;46981;-81
2023/09/07 01:57:52;;;;;;;;;12.00;12.00;;;;;29.40;49.25;101480.03;5100699;27;45265;-81
2023/09/07 02:00:17;;;;;;;;;11.00;10.33;;;;;29.46;49.35;101489.06;5119288;27;45368;-82
2023/09/07 02:02:43;;;;;;;;;11.67;11.67;;;;;29.45;49.79;101490.91;5100946;27;45645;-81
2023/09/07 02:05:09;;;;;;;;;13.00;11.00;;;;;29.36;49.39;101468.91;5100419;27;45408;-82
2023/09/07 02:07:34;;;;;;;;;11.00;11.00;;;;;29.49;49.05;101485.94;5118772;27;45375;-81
2023/09/07 02:10:03;;;;;;;;;9.33;9.33;;;;;29.48;48.92;101487.81;5119200;27;45206;-81
2023/09/07 02:12:28;;;;;;;;;9.33;9.33;;;;;29.45;49.42;101477.53;5119267;27;45579;-82
2023/09/07 02:14:53;;;;;;;;;9.67;9.33;;;;;29.48;49.19;101484.31;5100412;27;46463;-81
2023/09/07 02:17:19;;;;;;;;;8.67;8.67;;;;;29.48;49.19;101482.44;5119008;27;45393;-81
2023/09/07 02:19:44;;;;;;;;;9.33;8.00;;;;;29.43;49.29;101484.13;5117234;27;45351;-81
2023/09/07 02:22:10;;;;;;;;;9.00;9.00;;;;;29.44;49.27;101478.53;5118448;27;45532;-81
2023/09/07 02:24:35;;;;;;;;;11.00;9.67;;;;;29.46;49.56;101484.50;5100355;27;45760;-82
2023/09/07 02:27:01;;;;;;;;;10.00;10.00;;;;;29.48;49.28;101490.50;5118763;27;45366;-81
2023/09/07 02:29:26;;;;;;;;;8.67;8.67;;;;;29.40;49.53;101482.69;5100503;27;45496;-82
2023/09/07 02:31:52;;;;;;;;;11.00;11.00;;;;;29.29;49.32;101460.91;5119037;27;45536;-81
2023/09/07 02:34:17;;;;;;;;;9.00;9.00;;;;;29.43;49.10;101484.97;5118313;27;46104;-81
2023/09/07 02:36:43;;;;;;;;;10.00;10.00;;;;;29.39;49.55;101471.16;5118304;27;45469;-81
2023/09/07 02:39:08;;;;;;;;;9.67;9.67;;;;;29.40;49.27;101477.34;5100229;27;45352;-82
2023/09/07 02:41:34;;;;;;;;;10.33;8.67;;;;;29.47;49.33;101483.47;5096569;27;45451;-81
2023/09/07 02:43:59;;;;;;;;;10.33;10.33;;;;;29.43;49.24;101471.56;5099920;27;47182;-81
2023/09/07 02:46:25;;;;;;;;;11.00;11.00;;;;;29.49;49.40;101483.25;5118758;27;45751;-82
2023/09/07 02:48:50;;;;;;;;;8.00;8.00;;;;;29.44;49.20;101475.03;5117669;27;45408;-82
2023/09/07 02:51:17;;;;;;;;;11.00;11.00;;;;;29.45;49.24;101474.84;5118716;27;45367;-82
2023/09/07 02:53:42;;;;;;;;;10.67;10.00;;;;;29.47;49.08;101475.44;5118439;27;46406;-82
2023/09/07 02:56:07;;;;;;;;;10.67;10.00;;;;;29.37;49.53;101461.69;5099594;27;45420;-81
2023/09/07 02:58:33;;;;;;;;;12.67;10.33;;;;;29.49;49.13;101481.41;5100150;27;45300;-82
2023/09/07 03:00:58;;;;;;;;;9.67;9.33;;;;;29.52;49.06;101485.50;5117279;27;45340;-82
2023/09/07 03:03:24;;;;;;;;;12.00;11.00;;;;;29.51;48.78;101483.84;5117788;27;46634;-81
2023/09/07 03:05:49;;;;;;;;;9.00;8.67;;;;;29.44;49.11;101473.19;5118032;27;45325;-81
2023/09/07 03:08:14;;;;;;;;;8.67;8.67;;;;;29.46;49.17;101467.63;5099675;27;45322;-81
2023/09/07 03:10:40;;;;;;;;;12.33;11.00;;;;;29.45;48.89;101469.47;5099745;27;45377;-82
2023/09/07 03:13:06;;;;;;;;;10.00;10.00;;;;;29.52;49.05;101480.16;5118194;27;46539;-81
2023/09/07 03:15:32;;;;;;;;;8.33;8.33;;;;;29.48;49.30;101471.72;5118043;27;45328;-81
2023/09/07 03:17:57;;;;;;;;;10.67;10.00;;;;;29.48;49.07;101469.03;5116645;27;45339;-81
2023/09/07 03:20:23;;;;;;;;;12.00;11.33;;;;;29.47;49.13;101464.72;5099374;27;45354;-82
2023/09/07 03:22:49;;;;;;;;;10.00;10.00;;;;;29.48;48.98;101469.03;5099200;27;45428;-81
2023/09/07 03:25:14;;;;;;;;;11.00;11.00;;;;;29.45;49.15;101463.28;5099189;27;45357;-81
2023/09/07 03:27:40;;;;;;;;;10.00;9.67;;;;;29.40;49.03;101459.41;5099423;27;45456;-81
2023/09/07 03:30:06;;;;;;;;;10.33;10.33;;;;;29.48;48.63;101465.53;5118143;27;45250;-81
2023/09/07 03:32:33;;;;;;;;;10.00;10.00;;;;;29.46;49.02;101455.03;5117487;27;46608;-82
2023/09/07 03:35:00;;;;;;;;;9.67;9.67;;;;;29.43;48.80;101460.84;5117794;27;45310;-81
2023/09/07 03:37:28;;;;;;;;;10.00;10.00;;;;;29.47;48.98;101464.72;5117804;27;45431;-81
2023/09/07 03:39:55;;;;;;;;;10.67;10.67;;;;;29.39;48.77;101448.88;5117591;27;45389;-81
2023/09/07 03:42:20;;;;;;;;;8.00;7.00;;;;;29.42;48.68;101450.31;5095581;27;47504;-81
2023/09/07 03:44:46;;;;;;;;;10.00;10.00;;;;;29.46;49.12;101460.38;5098816;27;45314;-81
2023/09/07 03:47:13;;;;;;;;;9.33;9.33;;;;;29.43;48.90;101441.25;5115956;27;45239;-81
2023/09/07 03:49:39;;;;;;;;;12.33;12.33;;;;;29.49;49.01;101459.94;5117637;27;45280;-82
2023/09/07 03:52:04;;;;;;;;;10.33;9.00;;;;;29.46;48.72;101446.97;5098681;27;46115;-81
2023/09/07 03:54:31;;;;;;;;;9.33;9.33;;;;;29.48;48.94;101454.81;5099231;27;45471;-81
2023/09/07 03:56:56;;;;;;;;;9.33;9.33;;;;;29.49;48.51;101456.44;5118126;27;45418;-81
2023/09/07 03:59:22;;;;;;;;;8.00;8.00;;;;;29.42;49.39;101443.09;5100069;27;45440;-82
2023/09/07 04:01:47;;;;;;;;;8.33;8.33;;;;;29.42;48.78;101442.28;5117879;27;45368;-82
2023/09/07 04:04:13;;;;;;;;;7.33;7.33;;;;;29.38;48.90;101440.03;5098691;27;45396;-81
2023/09/07 04:06:38;;;;;;;;;12.00;9.00;;;;;29.44;48.89;101459.78;5098841;27;45397;-81
2023/09/07 04:09:04;;;;;;;;;10.33;10.33;;;;;29.49;48.75;101465.31;5098864;27;45263;-81
2023/09/07 04:11:29;;;;;;;;;9.00;9.00;;;;;29.43;48.79;101458.16;5098646;27;46572;-82
2023/09/07 04:13:54;;;;;;;;;10.00;10.00;;;;;29.40;48.78;101448.69;5098648;27;45322;-81
2023/09/07 04:16:20;;;;;;;;;8.00;8.00;;;;;29.43;48.93;101449.28;5098557;27;45388;-81
2023/09/07 04:18:45;;;;;;;;;10.00;10.00;;;;;29.39;48.71;101451.56;5117119;27;45217;-81
2023/09/07 04:21:11;;;;;;;;;7.67;7.67;;;;;29.47;48.67;101464.72;5098479;27;46535;-81
2023/09/07 04:23:36;;;;;;;;;11.00;9.00;;;;;29.48;48.55;101457.50;5117125;27;45304;-81
2023/09/07 04:26:09;;;;;;;;;8.33;8.33;;;;;29.44;48.67;101454.41;5098589;27;45421;-81
2023/09/07 04:28:35;;;;;;;;;12.00;10.33;;;;;29.39;48.75;101446.22;5115940;27;45591;-81
2023/09/07 04:31:01;;;;;;;;;9.00;9.00;;;;;29.42;48.71;101453.00;5116424;27;46326;-81
2023/09/07 04:33:26;;;;;;;;;10.33;10.33;;;;;29.40;48.82;101448.69;5116698;27;45355;-81
2023/09/07 04:35:51;;;;;;;;;9.00;9.00;;;;;29.42;48.75;101447.63;5116624;27;45359;-81
2023/09/07 04:38:17;;;;;;;;;10.67;9.67;;;;;29.42;48.73;101453.81;5116876;27;45360;-81
2023/09/07 04:40:42;;;;;;;;;10.00;8.00;;;;;29.43;48.58;101447.44;5115254;27;45331;-81
2023/09/07 04:43:07;;;;;;;;;9.33;8.00;;;;;29.40;48.70;101440.66;5116590;27;45380;-81
2023/09/07 04:45:33;;;;;;;;;9.00;9.00;;;;;29.42;48.65;101445.78;5115054;27;45472;-82
2023/09/07 04:47:58;;;;;;;;;10.00;8.33;;;;;29.45;48.55;101449.88;5097815;27;45529;-82
2023/09/07 04:50:23;;;;;;;;;8.67;8.67;;;;;29.48;48.62;101454.81;5116815;27;46628;-82
2023/09/07 04:52:49;;;;;;;;;10.33;9.00;;;;;29.50;48.42;101458.09;5098196;27;45486;-82
2023/09/07 04:55:14;;;;;;;;;9.00;9.00;;;;;29.46;48.52;101457.69;5116524;27;45375;-81
2023/09/07 04:57:39;;;;;;;;;6.67;6.67;;;;;29.49;48.68;101457.28;5114884;27;45727;-82
2023/09/07 05:00:11;;;;;;;;;8.33;8.33;;;;;29.43;48.50;101450.13;5097473;27;45475;-82
2023/09/07 05:02:40;;;;;;;;;8.67;8.67;;;;;29.45;48.69;101457.94;5116095;27;45281;-82
2023/09/07 05:05:06;;;;;;;;;8.67;8.67;;;;;29.48;48.67;101460.19;5098128;27;45475;-81
2023/09/07 05:07:31;;;;;;;;;7.33;7.33;;;;;29.46;48.67;101459.59;5116246;27;45613;-81
2023/09/07 05:09:57;;;;;;;;;8.33;8.00;;;;;29.40;48.11;101458.59;5097808;27;46559;-82
2023/09/07 05:12:22;;;;;;;;;9.00;9.00;;;;;29.48;48.54;101469.03;5099715;27;45424;-82
2023/09/07 05:14:47;;;;;;;;;7.00;7.00;;;;;29.44;48.36;101465.13;5119616;27;45392;-81
2023/09/07 05:17:13;;;;;;;;;8.00;8.00;;;;;29.46;48.48;101471.09;5101385;27;45523;-82
2023/09/07 05:19:38;;;;;;;;;9.67;9.67;;;;;29.46;47.99;101473.78;5118452;27;46694;-82
2023/09/07 05:22:03;;;;;;;;;9.00;9.00;;;;;29.46;48.42;101484.50;5118379;27;45547;-81
2023/09/07 05:24:29;;;;;;;;;10.00;10.00;;;;;29.49;48.01;101477.88;5119843;27;45451;-82
2023/09/07 05:26:54;;;;;;;;;11.00;10.00;;;;;29.42;48.58;101472.59;5101110;27;45542;-82
2023/09/07 05:29:21;;;;;;;;;9.00;7.67;;;;;29.45;48.65;101484.72;5098856;27;46321;-84
2023/09/07 05:31:47;;;;;;;;;10.00;10.00;;;;;29.42;48.64;101477.13;5119109;27;45364;-83
2023/09/07 05:34:12;;;;;;;;;8.67;8.67;;;;;29.41;48.55;101470.94;5119511;27;45455;-85
2023/09/07 05:36:37;;;;;;;;;8.67;6.33;;;;;29.39;48.21;101468.47;5118875;27;45233;-84
2023/09/07 05:39:03;;;;;;;;;12.33;9.67;;;;;29.46;48.32;101481.03;5118932;27;46448;-79
2023/09/07 05:41:29;;;;;;;;;9.33;7.67;;;;;29.36;43.73;101486.84;5119286;27;45333;-83
2023/09/07 05:43:55;;;;;;;;;11.00;9.00;;;;;29.12;43.73;101487.38;5119275;27;45408;-83
2023/09/07 05:46:21;;;;;;;;;6.00;6.00;;;;;28.92;43.51;101495.47;5119242;27;45629;-81
2023/09/07 05:48:46;;;;;;;;;7.00;7.00;;;;;28.73;43.41;101495.31;5117247;27;45763;-81
2023/09/07 05:51:11;;;;;;;;;6.33;6.33;;;;;28.56;43.60;101481.56;5100939;27;45442;-82
2023/09/07 05:53:38;;;;;;;;;8.00;8.00;;;;;28.49;43.32;101493.13;5118511;27;45529;-80
2023/09/07 05:56:04;;;;;;;;;7.00;7.00;;;;;28.37;43.55;101490.22;5117859;27;45575;-81
2023/09/07 05:58:29;;;;;;;;;7.33;7.33;;;;;28.32;43.45;101497.22;5096668;27;46722;-77
2023/09/07 06:00:54;;;;;;;;;5.33;5.33;;;;;28.20;43.56;101491.69;5122168;27;45468;-78
2023/09/07 06:03:20;;;;;;;;;8.67;7.00;;;;;28.17;43.32;101504.44;5120727;27;45428;-77
2023/09/07 06:05:45;;;;;;;;;7.00;5.33;;;;;28.17;43.47;101509.81;5115267;27;45540;-83
2023/09/07 06:08:11;;;;;;;;;8.00;8.00;;;;;28.05;43.29;101496.22;5111660;27;47225;-82
2023/09/07 06:10:36;;;;;;;;;8.00;7.00;;;;;28.01;43.31;101505.69;5115754;27;45472;-82
2023/09/07 06:13:01;;;;;;;;;7.00;7.00;;;;;27.93;42.89;101504.03;5099624;27;45368;-81
2023/09/07 06:15:27;;;;;;;;;6.67;6.67;;;;;27.83;42.62;101509.78;5102374;27;45381;-81
2023/09/07 06:17:54;;;;;;;;;9.00;9.00;;;;;27.69;43.22;101505.44;5117774;27;45362;-82
2023/09/07 06:20:19;;;;;;;;;7.67;7.00;;;;;27.66;42.96;101508.50;5118956;27;45388;-79
2023/09/07 06:22:45;;;;;;;;;7.00;7.00;;;;;27.63;43.50;101515.06;5117123;27;45460;-80
2023/09/07 06:25:10;;;;;;;;;9.00;8.67;;;;;27.58;43.58;101512.19;5119273;27;45597;-83
2023/09/07 06:27:36;;;;;;;;;6.67;6.67;;;;;27.46;43.36;101502.06;5118494;27;46305;-82
2023/09/07 06:30:01;;;;;;;;;8.00;6.00;;;;;27.58;43.74;101509.50;5118641;27;45433;-82
2023/09/07 06:32:26;;;;;;;;;7.00;7.00;;;;;27.69;43.17;101516.91;5117591;27;45458;-83
2023/09/07 06:34:52;;;;;;;;;10.67;8.00;;;;;27.74;43.58;101509.13;5100199;27;45428;-82
2023/09/07 06:37:17;;;;;;;;;12.00;9.00;;;;;27.79;44.47;101499.69;5118101;27;45421;-82
2023/09/07 06:39:43;;;;;;;;;9.00;8.00;;;;;27.89;43.80;101502.81;5117114;27;45483;-82
2023/09/07 06:42:12;;;;;;;;;9.00;8.67;;;;;27.93;43.54;101500.53;5117002;27;45362;-82
2023/09/07 06:44:37;;;;;;;;;7.00;7.00;;;;;27.95;43.79;101487.78;5104432;27;45532;-82
2023/09/07 06:47:04;;;;;;;;;9.00;8.00;;;;;28.10;44.25;101500.13;5117130;27;45580;-83
2023/09/07 06:49:29;;;;;;;;;7.00;7.00;;;;;28.20;44.05;101510.41;5118804;27;45411;-83
2023/09/07 06:51:56;;;;;;;;;12.00;11.00;;;;;28.25;44.65;101503.41;5099987;27;45409;-82
2023/09/07 06:54:21;;;;;;;;;4.33;4.33;;;;;28.31;44.43;101511.66;5118731;27;45360;-82
2023/09/07 06:56:47;;;;;;;;;8.33;8.00;;;;;28.36;44.44;101507.31;5099540;27;47367;-82
2023/09/07 06:59:13;;;;;;;;;9.00;8.00;;;;;28.41;44.13;101514.72;5118169;27;45328;-82
2023/09/07 07:01:38;;;;;;;;;5.00;5.00;;;;;28.44;44.73;101505.47;5100105;27;45331;-81
2023/09/07 07:04:04;;;;;;;;;7.00;7.00;;;;;28.47;44.92;101513.09;5117840;27;45460;-82
2023/09/07 07:06:29;;;;;;;;;9.00;7.33;;;;;28.47;44.48;101499.72;5099518;27;45583;-82
2023/09/07 07:08:54;;;;;;;;;7.67;7.67;;;;;28.56;44.62;101505.66;5099521;27;45276;-81
2023/09/07 07:11:20;;;;;;;;;6.00;6.00;;;;;28.61;44.74;101514.72;5099035;27;45286;-82
2023/09/07 07:13:45;;;;;;;;;8.67;7.33;;;;;28.62;44.61;101513.66;5118112;27;45288;-81
2023/09/07 07:16:10;;;;;;;;;7.00;7.00;;;;;28.69;45.12;101523.56;5117929;27;47231;-82
2023/09/07 07:18:36;;;;;;;;;7.33;7.33;;;;;28.65;45.09;101514.31;5117967;27;45285;-82
2023/09/07 07:21:01;;;;;;;;;7.33;7.33;;;;;28.68;45.18;101509.34;5118243;27;45324;-82
2023/09/07 07:23:27;;;;;;;;;9.33;8.67;;;;;28.70;44.74;101509.94;5098865;27;45550;-82
2023/09/07 07:25:52;;;;;;;;;9.33;8.00;;;;;28.74;45.03;101508.50;5099381;27;47221;-82
2023/09/07 07:28:18;;;;;;;;;9.00;7.67;;;;;28.75;44.78;101506.66;5117827;27;45269;-82
2023/09/07 07:30:43;;;;;;;;;7.00;7.00;;;;;28.73;44.83;101496.13;5117974;27;45245;-82
2023/09/07 07:33:11;;;;;;;;;7.33;6.33;;;;;28.76;44.94;101502.09;5118152;27;45393;-82
2023/09/07 07:35:37;;;;;;;;;7.67;6.00;;;;;28.77;44.90;101499.22;5116896;27;45533;-82
2023/09/07 07:38:04;;;;;;;;;8.00;8.00;;;;;28.86;45.25;101510.50;5117359;27;45462;-82
2023/09/07 07:40:33;;;;;;;;;7.33;7.33;;;;;28.84;45.28;101502.69;5117933;27;45304;-83
2023/09/07 07:42:58;;;;;;;;;8.00;6.67;;;;;28.92;45.14;101514.22;5113908;27;45942;-82
2023/09/07 07:45:23;;;;;;;;;8.33;7.67;;;;;28.92;44.70;101508.84;5101000;27;46094;-82
2023/09/07 07:47:49;;;;;;;;;11.00;11.00;;;;;28.93;44.95;101513.19;5117759;27;45306;-83
2023/09/07 07:50:15;;;;;;;;;8.00;8.00;;;;;28.92;45.14;101500.81;5099122;27;45456;-81
2023/09/07 07:52:41;;;;;;;;;8.00;8.00;;;;;28.98;44.75;101499.16;5117606;27;45371;-81
2023/09/07 07:55:06;;;;;;;;;8.00;8.00;;;;;28.96;44.82;101491.34;5117610;27;45339;-81
2023/09/07 07:57:32;;;;;;;;;8.00;7.00;;;;;29.04;45.33;101504.47;5116971;27;45289;-81
2023/09/07 07:59:58;;;;;;;;;9.00;7.00;;;;;28.99;45.27;101498.13;5117136;27;45392;-82
2023/09/07 08:02:23;;;;;;;;;7.33;6.33;;;;;29.04;45.82;101512.50;5116425;27;45604;-81
2023/09/07 08:04:48;;;;;;;;;9.00;6.00;;;;;28.97;45.16;101490.28;5117251;27;46528;-81
2023/09/07 08:07:14;;;;;;;;;6.33;6.33;;;;;29.04;45.35;101491.09;5116970;27;45408;-81
2023/09/07 08:09:39;;;;;;;;;9.67;8.00;;;;;29.10;45.14;101508.19;5099092;27;45444;-82
2023/09/07 08:12:05;;;;;;;;;8.00;6.67;;;;;29.09;44.97;101497.66;5117634;27;45354;-82
2023/09/07 08:14:31;;;;;;;;;7.00;7.00;;;;;29.13;45.22;101507.78;5117033;27;45544;-81
2023/09/07 08:16:57;;;;;;;;;7.67;7.67;;;;;29.07;45.33;101487.16;5098550;27;45377;-81
2023/09/07 08:19:23;;;;;;;;;8.00;8.00;;;;;29.11;45.30;101498.31;5098806;27;45419;-81
2023/09/07 08:21:48;;;;;;;;;6.67;5.00;;;;;29.07;45.23;101485.31;5116846;27;45413;-81
2023/09/07 08:24:14;;;;;;;;;5.00;5.00;;;;;29.09;44.89;101490.50;5116926;27;46426;-82
2023/09/07 08:26:39;;;;;;;;;6.00;6.00;;;;;29.14;45.15;101496.03;5117066;27;45359;-82
2023/09/07 08:29:05;;;;;;;;;6.00;6.00;;;;;29.12;45.19;101490.03;5117276;27;45332;-81
2023/09/07 08:31:35;;;;;;;;;6.67;5.67;;;;;29.18;45.02;101488.38;5098512;27;45761;-82
2023/09/07 08:34:03;;;;;;;;;8.33;7.33;;;;;29.20;45.45;101488.19;5115717;27;46633;-81
2023/09/07 08:36:32;;;;;;;;;6.33;6.33;;;;;29.16;45.33;101487.78;5116747;27;45202;-82
2023/09/07 08:38:59;;;;;;;;;4.00;4.00;;;;;29.22;45.44;101489.59;5117001;27;45362;-81
2023/09/07 08:41:26;;;;;;;;;8.00;7.33;;;;;29.24;45.35;101484.84;5116836;27;45406;-81
2023/09/07 08:43:53;;;;;;;;;7.00;6.33;;;;;29.25;45.51;101491.84;5116489;27;46158;-81
2023/09/07 08:46:23;;;;;;;;;5.33;5.33;;;;;29.20;45.25;101478.25;5118483;27;45238;-81
2023/09/07 08:48:49;;;;;;;;;7.33;7.00;;;;;29.18;45.05;101477.66;5119308;27;45513;-82
2023/09/07 08:51:17;;;;;;;;;7.00;7.00;;;;;29.29;45.17;101492.25;5120290;27;45410;-81
2023/09/07 08:53:46;;;;;;;;;8.00;7.00;;;;;29.20;45.15;101474.78;5120439;27;46145;-81
2023/09/07 08:56:13;;;;;;;;;6.00;6.00;;;;;29.30;45.09;101483.19;5120285;27;45367;-81
2023/09/07 08:58:40;;;;;;;;;8.00;6.00;;;;;29.31;45.54;101481.28;5101938;27;45376;-82
2023/09/07 09:01:06;;;;;;;;;6.33;5.67;;;;;29.20;45.00;101467.53;5119602;27;45318;-82
2023/09/07 09:03:31;;;;;;;;;8.00;6.67;;;;;29.28;45.05;101477.19;5119853;27;46444;-82
2023/09/07 09:05:57;;;;;;;;;8.00;7.00;;;;;29.32;45.01;101489.13;5100795;27;45191;-81
2023/09/07 09:08:24;;;;;;;;;6.67;6.67;;;;;29.24;45.27;101471.47;5120113;27;45261;-82
2023/09/07 09:11:00;;;;;;;;;9.33;7.33;;;;;29.31;45.31;101476.75;5120389;27;45411;-82
2023/09/07 09:13:30;;;;;;;;;6.33;5.67;;;;;29.34;45.38;101478.19;5120104;27;45817;-82
2023/09/07 09:15:55;;;;;;;;;8.33;7.67;;;;;29.29;45.01;101470.81;5101337;27;45275;-81
2023/09/07 09:18:20;;;;;;;;;8.00;8.00;;;;;29.33;45.04;101473.88;5120101;27;45245;-81
2023/09/07 09:20:46;;;;;;;;;7.67;6.00;;;;;29.30;45.45;101472.47;5101130;27;45704;-81
2023/09/07 09:23:13;;;;;;;;;6.00;6.00;;;;;29.37;45.47;101478.59;5119865;27;46370;-82
2023/09/07 09:25:40;;;;;;;;;4.33;3.67;;;;;29.38;45.41;101482.09;5120642;27;45268;-83
2023/09/07 09:28:08;;;;;;;;;6.00;6.00;;;;;29.35;45.62;101471.81;5118941;27;45452;-82
2023/09/07 09:30:35;;;;;;;;;9.00;6.33;;;;;29.38;45.43;101477.53;5122984;27;45403;-83
2023/09/07 09:33:12;;;;;;;;;5.33;5.33;;;;;29.40;45.52;101475.50;5128345;27;46259;-81
2023/09/07 09:35:38;;;;;;;;;5.33;5.33;;;;;29.39;45.73;101475.69;5135410;27;45203;-83
2023/09/07 09:38:04;;;;;;;;;7.33;6.33;;;;;29.41;45.26;101487.00;5119945;27;45342;-82
2023/09/07 09:40:33;;;;;;;;;4.33;4.33;;;;;29.41;45.54;101487.00;5119777;27;45286;-82
2023/09/07 09:42:59;;;;;;;;;4.00;4.00;;;;;29.38;45.34;101480.22;5119153;27;46541;-82
2023/09/07 09:45:26;;;;;;;;;6.33;6.33;;;;;29.42;45.60;101477.13;5119610;27;45330;-82
2023/09/07 09:47:54;;;;;;;;;5.33;5.00;;;;;29.39;45.48;101476.50;5119550;27;45335;-82
2023/09/07 09:50:20;;;;;;;;;8.00;6.00;;;;;29.42;45.37;101479.78;5100353;27;45443;-82
2023/09/07 09:52:45;;;;;;;;;4.67;4.67;;;;;29.34;45.54;101462.94;5119367;27;46248;-83
2023/09/07 09:55:12;;;;;;;;;7.00;7.00;;;;;29.43;45.82;101474.25;5119442;27;45482;-83
2023/09/07 09:57:38;;;;;;;;;6.33;6.33;;;;;29.42;45.46;101472.59;5118564;27;45410;-82
2023/09/07 10:00:28;;;;;;;;;8.00;6.00;;;;;29.39;45.66;101462.28;5119005;27;45344;-83
2023/09/07 10:03:05;;;;;;;;;5.67;5.67;;;;;29.43;45.39;101476.91;5118457;27;46125;-81
2023/09/07 10:05:31;;;;;;;;;6.67;5.00;;;;;29.42;45.28;101459.19;5117831;27;45387;-83
2023/09/07 10:08:19;;;;;;;;;5.00;5.00;;;;;29.46;45.50;101470.31;5119362;27;45317;-82
2023/09/07 10:10:55;;;;;;;;;4.67;4.67;;;;;29.45;45.53;101465.97;5119129;27;45294;-83
2023/09/07 10:13:33;;;;;;;;;6.33;6.00;;;;;29.48;45.29;101474.41;5100601;27;45757;-83
2023/09/07 10:16:07;;;;;;;;;5.33;5.33;;;;;29.44;45.41;101462.47;5118023;27;45256;-82
2023/09/07 10:18:34;;;;;;;;;5.33;4.00;;;;;29.42;45.53;101453.00;5118731;27;45341;-83
2023/09/07 10:21:02;;;;;;;;;5.33;5.33;;;;;29.43;45.47;101460.84;5118679;27;45468;-82
2023/09/07 10:23:45;;;;;;;;;5.33;5.33;;;;;29.51;45.47;101459.72;5118925;27;46606;-83
2023/09/07 10:26:13;;;;;;;;;6.67;5.33;;;;;29.42;45.43;101447.63;5096402;27;45477;-82
2023/09/07 10:28:39;;;;;;;;;6.67;5.67;;;;;29.48;45.55;101460.19;5119048;27;45303;-82
2023/09/07 10:31:19;;;;;;;;;7.00;6.00;;;;;29.44;45.24;101449.06;5118887;27;45396;-82
2023/09/07 10:33:46;;;;;;;;;7.00;6.00;;;;;29.46;45.52;101456.91;5118404;27;45391;-82
2023/09/07 10:36:25;;;;;;;;;6.00;6.00;;;;;29.52;45.51;101458.69;5118723;27;45415;-82
2023/09/07 10:38:55;;;;;;;;;6.33;6.33;;;;;29.51;45.49;101455.19;5118608;27;45394;-83
2023/09/07 10:41:20;;;;;;;;;6.00;6.00;;;;;29.51;45.39;101455.19;5118549;27;45474;-83
2023/09/07 10:43:51;;;;;;;;;4.33;4.33;;;;;29.49;45.40;101445.72;5118197;27;45448;-82
2023/09/07 10:46:21;;;;;;;;;5.00;5.00;;;;;29.48;45.36;101447.59;5118661;27;45219;-83
2023/09/07 10:48:53;;;;;;;;;7.00;6.00;;;;;29.48;46.04;101442.25;5118306;27;45334;-83
2023/09/07 10:51:20;;;;;;;;;4.67;4.67;;;;;29.50;45.34;101440.16;5099708;27;45441;-83
2023/09/07 10:53:45;;;;;;;;;8.00;6.67;;;;;29.49;45.46;101440.34;5118385;27;45396;-83
2023/09/07 10:56:11;;;;;;;;;6.00;6.00;;;;;29.51;45.27;101444.47;5118416;27;45366;-83
2023/09/07 10:58:41;;;;;;;;;4.33;4.33;;;;;29.53;45.44;101433.53;5118800;27;45380;-83
2023/09/07 11:01:08;;;;;;;;;7.67;7.67;;;;;29.51;45.49;101427.56;5118437;27;45226;-81
2023/09/07 11:03:36;;;;;;;;;5.33;5.33;;;;;29.50;45.81;101431.28;5118240;27;46340;-81
2023/09/07 11:06:03;;;;;;;;;6.33;6.33;;;;;29.56;45.46;101435.75;5118184;27;45455;-82
2023/09/07 11:08:29;;;;;;;;;6.00;6.00;;;;;29.53;45.43;101430.88;5118445;27;45434;-82
2023/09/07 11:10:54;;;;;;;;;5.67;5.67;;;;;29.42;45.31;101420.84;5118201;27;45420;-81
2023/09/07 11:13:21;;;;;;;;;6.33;6.33;;;;;29.53;45.26;101433.53;5118060;27;46267;-81
2023/09/07 11:15:46;;;;;;;;;5.00;5.00;;;;;29.52;45.60;101423.84;5117919;27;45301;-81